KAGS

Augusta Regional at Bush Field Airport

Augusta, Georgia, USA
KAGS 251659Z 2517/2612 06006KT P6SM BKN018 FM251800 05007KT P6SM BKN035 FM252000 05006KT P6SM SCT040 FM260600 00000KT 3SM BR SCT005 FM260900 00000KT 1/2SM FG VV004
Issued Valid From Valid To
Sep-25 @ 16:59 UTC
(27 minutes ago)
Sep-25 @ 17:00 UTC
(26 minutes ago)
Sep-26 @ 12:00 UTC
(in 19 hours)
Sep-25 @ 17:00 to Sep-25 @ 18:00
KAGS 251659Z 2517/2612 06006KT P6SM BKN018
Wind Visibility Clouds
60° at 6 knots Greater than 6 miles
  • Broken at 1,800' AGL
From Sep-25 @ 18:00 to Sep-25 @ 20:00
FM251800 05007KT P6SM BKN035
Wind Visibility Clouds
50° at 7 knots Greater than 6 miles
  • Broken at 3,500' AGL
From Sep-25 @ 20:00 to Sep-26 @ 06:00
FM252000 05006KT P6SM SCT040
Wind Visibility Clouds
50° at 6 knots Greater than 6 miles
  • Scattered at 4,000' AGL
From Sep-26 @ 06:00 to Sep-26 @ 09:00
FM260600 00000KT 3SM BR SCT005
Visibility Clouds Conditions
3 miles
  • Scattered at 500' AGL
  • Mist
From Sep-26 @ 09:00 to Sep-26 @ 12:00
FM260900 00000KT 1/2SM FG VV004
Visibility Clouds Conditions
1/2 miles
  • Vertical visibility at 400' AGL
  • Fog
KAGS 251659Z 2517/2612 06006KT P6SM BKN018 FM251800 05007KT P6SM BKN035 FM252000 05006KT P6SM SCT040 FM260600 00000KT 3SM BR SCT005 FM260900 00000KT 1/2SM FG VV004
Issued Sep-25 @ 16:59 UTC
(27 minutes ago)
Valid From Sep-25 @ 17:00 UTC
(26 minutes ago)
Valid To Sep-26 @ 12:00 UTC
(in 19 hours)
Sep-25 @ 17:00 - Sep-25 @ 18:00
Wind Visibility
60° at 6 knots Greater than 6 miles
Clouds
  • Broken at 1,800' AGL
From Sep-25 @ 18:00 - Sep-25 @ 20:00
Wind Visibility
50° at 7 knots Greater than 6 miles
Clouds
  • Broken at 3,500' AGL
From Sep-25 @ 20:00 - Sep-26 @ 06:00
Wind Visibility
50° at 6 knots Greater than 6 miles
Clouds
  • Scattered at 4,000' AGL
From Sep-26 @ 06:00 - Sep-26 @ 09:00
Clouds
  • Scattered at 500' AGL
Conditions
  • Mist
From Sep-26 @ 09:00 - Sep-26 @ 12:00
Clouds
  • Vertical visibility at 400' AGL
Conditions
  • Fog